createdAt,value
2022-08-24T00:00:50.593Z,21.69
2022-08-24T00:01:50.807Z,21.69
2022-08-24T00:02:51.187Z,21.66
2022-08-24T00:03:55.241Z,21.64
2022-08-24T00:04:51.321Z,21.62
2022-08-24T00:05:51.565Z,21.61
2022-08-24T00:06:51.662Z,21.58
2022-08-24T00:07:51.841Z,21.55
2022-08-24T00:08:52.087Z,21.55
2022-08-24T00:09:52.168Z,21.54
2022-08-24T00:10:52.354Z,21.55
2022-08-24T00:11:52.511Z,21.55
2022-08-24T00:12:52.725Z,21.52
2022-08-24T00:13:52.963Z,21.51
2022-08-24T00:14:53.058Z,21.50
2022-08-24T00:15:53.234Z,21.45
2022-08-24T00:16:53.523Z,21.46
2022-08-24T00:17:53.653Z,21.45
2022-08-24T00:18:53.773Z,21.45
2022-08-24T00:19:53.963Z,21.45
2022-08-24T00:20:54.103Z,21.43
2022-08-24T00:21:54.276Z,21.45
2022-08-24T00:22:54.456Z,21.46
2022-08-24T00:23:54.664Z,21.43
2022-08-24T00:24:54.789Z,21.40
2022-08-24T00:25:55.031Z,21.40
2022-08-24T00:26:55.163Z,21.40
2022-08-24T00:27:55.313Z,21.40
2022-08-24T00:28:55.504Z,21.40
2022-08-24T00:29:55.709Z,21.40
2022-08-24T00:30:55.855Z,21.36
2022-08-24T00:31:56.019Z,21.35
2022-08-24T00:32:56.273Z,21.35
2022-08-24T00:33:56.362Z,21.32
2022-08-24T00:34:58.649Z,21.33
2022-08-24T00:35:56.674Z,21.33
2022-08-24T00:36:56.885Z,21.29
2022-08-24T00:37:57.205Z,21.30
2022-08-24T00:38:57.204Z,21.29
2022-08-24T00:39:57.456Z,21.27
2022-08-24T00:40:57.605Z,21.25
2022-08-24T00:41:57.684Z,21.24
2022-08-24T00:42:57.865Z,21.24
2022-08-24T00:43:58.026Z,21.22
2022-08-24T00:44:58.216Z,21.22
2022-08-24T00:45:58.455Z,21.22
2022-08-24T00:46:58.534Z,21.22
2022-08-24T00:47:58.961Z,21.22
2022-08-24T00:48:58.889Z,21.24
2022-08-24T00:49:59.075Z,21.21
2022-08-24T00:50:59.324Z,21.21
2022-08-24T00:51:59.451Z,21.21
2022-08-24T00:52:59.615Z,21.21
2022-08-24T00:53:59.832Z,21.20
2022-08-24T00:54:59.987Z,21.18
2022-08-24T00:56:00.135Z,21.14
2022-08-24T00:57:00.297Z,21.12
2022-08-24T00:58:00.561Z,21.14
2022-08-24T00:59:00.632Z,21.12
2022-08-24T01:00:00.825Z,21.09
2022-08-24T01:01:01.162Z,21.09
2022-08-24T01:02:05.251Z,21.06
2022-08-24T01:03:02.366Z,21.02
2022-08-24T01:04:01.621Z,21.00
2022-08-24T01:05:01.677Z,20.99
2022-08-24T01:06:01.874Z,20.99
2022-08-24T01:07:02.108Z,20.99
2022-08-24T01:08:02.539Z,20.99
2022-08-24T01:09:02.376Z,20.97
2022-08-24T01:10:02.556Z,20.96
2022-08-24T01:11:02.735Z,20.92
2022-08-24T01:12:02.896Z,20.92
2022-08-24T01:13:03.075Z,20.90
2022-08-24T01:14:03.290Z,20.90
2022-08-24T01:15:03.449Z,20.87
2022-08-24T01:16:03.613Z,20.87
2022-08-24T01:17:03.772Z,20.84
2022-08-24T01:18:04.146Z,20.84
2022-08-24T01:19:04.105Z,20.81
2022-08-24T01:20:04.297Z,20.81
2022-08-24T01:21:04.535Z,20.80
2022-08-24T01:22:04.637Z,20.78
2022-08-24T01:23:04.849Z,20.78
2022-08-24T01:24:05.082Z,20.77
2022-08-24T01:25:05.159Z,20.77
2022-08-24T01:26:05.380Z,20.78
2022-08-24T01:27:05.582Z,20.78
2022-08-24T01:28:05.687Z,20.74
2022-08-24T01:29:05.949Z,20.74
2022-08-24T01:30:06.062Z,20.74
2022-08-24T01:31:06.255Z,20.74
2022-08-24T01:32:06.458Z,20.74
2022-08-24T01:33:06.632Z,20.74
2022-08-24T01:34:06.748Z,20.74
2022-08-24T01:35:06.915Z,20.70
2022-08-24T01:36:07.075Z,20.67
2022-08-24T01:37:07.247Z,20.67
2022-08-24T01:38:07.459Z,20.65
2022-08-24T01:39:07.701Z,20.66
2022-08-24T01:40:07.855Z,20.63
2022-08-24T01:41:07.997Z,20.65
2022-08-24T01:42:08.246Z,20.63
2022-08-24T01:43:08.366Z,20.63
2022-08-24T01:44:08.489Z,20.62
2022-08-24T01:45:08.705Z,20.60
2022-08-24T01:46:08.889Z,20.62
2022-08-24T01:47:09.012Z,20.59
2022-08-24T01:48:09.209Z,20.59
2022-08-24T01:49:09.425Z,20.59
2022-08-24T01:50:09.559Z,20.56
2022-08-24T01:51:09.718Z,20.56
2022-08-24T01:52:09.991Z,20.56
2022-08-24T01:53:10.127Z,20.52
2022-08-24T01:54:10.297Z,20.55
2022-08-24T01:55:10.549Z,20.51
2022-08-24T01:56:10.640Z,20.51
2022-08-24T01:57:10.800Z,20.51
2022-08-24T01:58:10.999Z,20.51
2022-08-24T01:59:11.158Z,20.51
2022-08-24T02:00:11.420Z,20.50
2022-08-24T02:01:11.504Z,20.50
2022-08-24T02:02:11.707Z,20.50
2022-08-24T02:03:11.959Z,20.48
2022-08-24T02:04:12.010Z,20.44
2022-08-24T02:05:13.190Z,20.43
2022-08-24T02:06:12.381Z,20.43
2022-08-24T02:07:12.530Z,20.41
2022-08-24T02:08:12.757Z,20.40
2022-08-24T02:09:12.998Z,20.39
2022-08-24T02:10:13.124Z,20.37
2022-08-24T02:11:13.280Z,20.36
2022-08-24T02:12:13.444Z,20.34
2022-08-24T02:13:13.619Z,20.32
2022-08-24T02:14:14.554Z,20.31
2022-08-24T02:15:13.979Z,20.32
2022-08-24T02:16:14.193Z,20.29
2022-08-24T02:17:14.512Z,20.29
2022-08-24T02:18:15.287Z,20.28
2022-08-24T02:19:14.660Z,20.29
2022-08-24T02:20:14.820Z,20.31
2022-08-24T02:21:15.050Z,20.31
2022-08-24T02:22:15.152Z,20.28
2022-08-24T02:23:15.330Z,20.31
2022-08-24T02:24:15.574Z,20.31
2022-08-24T02:25:15.660Z,20.32
2022-08-24T02:26:15.832Z,20.31
2022-08-24T02:27:16.063Z,20.31
2022-08-24T02:28:16.198Z,20.31
2022-08-24T02:29:16.341Z,20.31
2022-08-24T02:30:16.570Z,20.32
2022-08-24T02:31:16.791Z,20.32
2022-08-24T02:32:16.874Z,20.32
2022-08-24T02:33:17.080Z,20.31
2022-08-24T02:34:17.254Z,20.32
2022-08-24T02:35:17.374Z,20.31
2022-08-24T02:36:26.173Z,20.31
2022-08-24T02:37:18.805Z,20.29
2022-08-24T02:38:17.900Z,20.29
2022-08-24T02:39:18.050Z,20.31
2022-08-24T02:40:18.389Z,20.31
2022-08-24T02:41:18.421Z,20.31
2022-08-24T02:42:18.790Z,20.31
2022-08-24T02:43:18.803Z,20.29
2022-08-24T02:44:18.960Z,20.32
2022-08-24T02:45:19.203Z,20.31
2022-08-24T02:46:19.345Z,20.32
2022-08-24T02:47:19.669Z,20.29
2022-08-24T02:48:19.765Z,20.32
2022-08-24T02:49:19.846Z,20.32
2022-08-24T02:50:19.991Z,20.36
2022-08-24T02:51:20.220Z,20.32
2022-08-24T02:52:20.384Z,20.37
2022-08-24T02:53:20.502Z,20.31
2022-08-24T02:54:20.671Z,20.32
2022-08-24T02:55:20.885Z,20.31
2022-08-24T02:56:21.002Z,20.28
2022-08-24T02:57:21.171Z,20.29
2022-08-24T02:58:21.421Z,20.28
2022-08-24T02:59:21.499Z,20.28
2022-08-24T03:00:21.663Z,20.28
2022-08-24T03:01:24.169Z,20.25
2022-08-24T03:02:23.256Z,20.25
2022-08-24T03:03:22.182Z,20.24
2022-08-24T03:04:22.434Z,20.22
2022-08-24T03:05:22.520Z,20.21
2022-08-24T03:06:22.673Z,20.22
2022-08-24T03:07:22.878Z,20.22
2022-08-24T03:08:23.065Z,20.22
2022-08-24T03:09:23.538Z,20.18
2022-08-24T03:10:23.352Z,20.16
2022-08-24T03:11:27.411Z,20.16
2022-08-24T03:12:23.702Z,20.19
2022-08-24T03:13:23.874Z,20.14
2022-08-24T03:14:24.115Z,20.14
2022-08-24T03:15:24.183Z,20.13
2022-08-24T03:16:24.384Z,20.14
2022-08-24T03:17:24.645Z,20.14
2022-08-24T03:18:24.913Z,20.13
2022-08-24T03:19:24.912Z,20.11
2022-08-24T03:20:25.180Z,20.10
2022-08-24T03:21:25.267Z,20.07
2022-08-24T03:22:25.440Z,20.10
2022-08-24T03:23:25.711Z,20.14
2022-08-24T03:24:25.824Z,20.14
2022-08-24T03:25:25.943Z,20.16
2022-08-24T03:26:26.146Z,20.19
2022-08-24T03:27:26.330Z,20.22
2022-08-24T03:28:26.473Z,20.26
2022-08-24T03:29:26.652Z,20.28
2022-08-24T03:30:26.970Z,20.32
2022-08-24T03:31:26.983Z,20.39
2022-08-24T03:32:27.153Z,20.41
2022-08-24T03:33:27.450Z,20.47
2022-08-24T03:34:27.504Z,20.52
2022-08-24T03:35:27.674Z,20.58
2022-08-24T03:36:27.845Z,20.62
2022-08-24T03:37:28.014Z,20.66
2022-08-24T03:38:28.309Z,20.70
2022-08-24T03:39:28.357Z,20.77
2022-08-24T03:40:28.603Z,20.82
2022-08-24T03:41:28.777Z,20.85
2022-08-24T03:42:28.882Z,20.90
2022-08-24T03:43:29.073Z,20.95
2022-08-24T03:44:29.248Z,20.96
2022-08-24T03:45:29.436Z,21.05
2022-08-24T03:46:29.584Z,21.07
2022-08-24T03:47:29.744Z,21.12
2022-08-24T03:48:29.954Z,21.14
2022-08-24T03:49:30.105Z,21.18
2022-08-24T03:50:30.356Z,21.17
2022-08-24T03:51:30.455Z,21.21
2022-08-24T03:52:33.892Z,21.21
2022-08-24T03:53:30.907Z,21.25
2022-08-24T03:54:30.955Z,21.32
2022-08-24T03:55:31.136Z,21.32
2022-08-24T03:56:31.417Z,21.33
2022-08-24T03:57:31.514Z,21.35
2022-08-24T03:58:31.720Z,21.37
2022-08-24T03:59:31.978Z,21.42
2022-08-24T04:00:32.062Z,21.43
2022-08-24T04:01:32.282Z,21.43
2022-08-24T04:02:33.110Z,21.46
2022-08-24T04:03:32.655Z,21.52
2022-08-24T04:04:32.726Z,21.54
2022-08-24T04:05:35.058Z,21.57
2022-08-24T04:06:33.087Z,21.60
2022-08-24T04:07:33.288Z,21.64
2022-08-24T04:08:33.538Z,21.66
2022-08-24T04:09:33.607Z,21.66
2022-08-24T04:10:33.775Z,21.69
2022-08-24T04:11:34.754Z,21.70
2022-08-24T04:12:34.116Z,21.75
2022-08-24T04:13:34.366Z,21.76
2022-08-24T04:14:34.436Z,21.82
2022-08-24T04:15:34.624Z,21.85
2022-08-24T04:16:34.935Z,21.89
2022-08-24T04:17:34.978Z,21.91
2022-08-24T04:18:35.187Z,21.93
2022-08-24T04:19:35.439Z,21.96
2022-08-24T04:20:35.537Z,21.96
2022-08-24T04:21:35.839Z,21.98
2022-08-24T04:22:35.889Z,21.99
2022-08-24T04:23:47.713Z,21.99
2022-08-24T04:24:37.217Z,21.99
2022-08-24T04:25:36.377Z,21.98
2022-08-24T04:26:44.822Z,21.96
2022-08-24T04:27:37.738Z,21.98
2022-08-24T04:28:36.934Z,21.96
2022-08-24T04:29:37.068Z,21.98
2022-08-24T04:30:37.341Z,22.00
2022-08-24T04:31:37.472Z,22.00
2022-08-24T04:32:37.593Z,22.04
2022-08-24T04:33:37.821Z,22.06
2022-08-24T04:34:37.937Z,22.08
2022-08-24T04:35:38.179Z,22.08
2022-08-24T04:36:38.361Z,22.11
2022-08-24T04:37:38.478Z,22.11
2022-08-24T04:38:38.704Z,22.13
2022-08-24T04:39:38.884Z,22.13
2022-08-24T04:40:39.019Z,22.14
2022-08-24T04:41:39.188Z,22.13
2022-08-24T04:42:39.460Z,22.14
2022-08-24T04:43:39.588Z,22.18
2022-08-24T04:44:39.788Z,22.18
2022-08-24T04:45:39.932Z,22.23
2022-08-24T04:46:40.171Z,22.22
2022-08-24T04:47:40.280Z,22.18
2022-08-24T04:48:40.522Z,22.15
2022-08-24T04:49:40.640Z,22.10
2022-08-24T04:50:40.849Z,22.08
2022-08-24T04:51:41.010Z,22.10
2022-08-24T04:52:41.209Z,22.11
2022-08-24T04:53:41.435Z,22.14
2022-08-24T04:54:41.539Z,22.18
2022-08-24T04:55:41.793Z,22.25
2022-08-24T04:56:41.900Z,22.26
2022-08-24T04:57:42.120Z,22.30
2022-08-24T04:58:42.328Z,22.33
2022-08-24T04:59:42.422Z,22.38
2022-08-24T05:00:42.705Z,22.41
2022-08-24T05:01:42.833Z,22.44
2022-08-24T05:02:45.041Z,22.47
2022-08-24T05:03:43.169Z,22.53
2022-08-24T05:04:43.289Z,22.55
2022-08-24T05:05:43.471Z,22.59
2022-08-24T05:06:43.660Z,22.55
2022-08-24T05:07:43.870Z,22.57
2022-08-24T05:08:44.012Z,22.57
2022-08-24T05:09:44.204Z,22.60
2022-08-24T05:10:44.427Z,22.65
2022-08-24T05:11:49.685Z,22.66
2022-08-24T05:12:45.721Z,22.70
2022-08-24T05:13:44.965Z,22.75
2022-08-24T05:14:45.063Z,22.80
2022-08-24T05:15:45.253Z,22.83
2022-08-24T05:16:45.857Z,22.85
2022-08-24T05:17:46.780Z,22.88
2022-08-24T05:18:45.752Z,22.93
2022-08-24T05:19:46.017Z,22.93
2022-08-24T05:20:46.158Z,22.91
2022-08-24T05:21:46.291Z,22.90
2022-08-24T05:22:46.491Z,22.91
2022-08-24T05:23:46.698Z,22.91
2022-08-24T05:24:46.801Z,22.93
2022-08-24T05:25:46.993Z,22.93
2022-08-24T05:26:47.257Z,22.98
2022-08-24T05:27:47.362Z,22.99
2022-08-24T05:28:47.568Z,23.00
2022-08-24T05:29:47.672Z,23.03
2022-08-24T05:30:47.822Z,23.08
2022-08-24T05:31:48.092Z,23.09
2022-08-24T05:32:48.163Z,23.15
2022-08-24T05:33:48.340Z,23.18
2022-08-24T05:34:48.606Z,23.23
2022-08-24T05:35:48.702Z,23.23
2022-08-24T05:36:48.892Z,23.27
2022-08-24T05:37:49.204Z,23.32
2022-08-24T05:38:49.255Z,23.37
2022-08-24T05:39:49.467Z,23.39
2022-08-24T05:40:49.703Z,23.47
2022-08-24T05:41:49.822Z,23.48
2022-08-24T05:42:49.974Z,23.55
2022-08-24T05:43:50.157Z,23.59
2022-08-24T05:44:50.310Z,23.63
2022-08-24T05:45:50.550Z,23.69
2022-08-24T05:46:50.743Z,23.77
2022-08-24T05:47:50.950Z,23.83
2022-08-24T05:48:52.951Z,23.86
2022-08-24T05:49:51.165Z,23.87
2022-08-24T05:50:51.376Z,23.88
2022-08-24T05:51:51.552Z,23.87
2022-08-24T05:52:51.705Z,23.87
2022-08-24T05:53:51.876Z,23.86
2022-08-24T05:54:52.084Z,23.83
2022-08-24T05:55:52.229Z,23.80
2022-08-24T05:56:52.415Z,23.77
2022-08-24T05:57:52.718Z,23.77
2022-08-24T05:58:52.753Z,23.78
2022-08-24T05:59:52.925Z,23.76
2022-08-24T06:00:53.195Z,23.76
2022-08-24T06:01:53.466Z,23.78
2022-08-24T06:02:53.721Z,23.80
2022-08-24T06:03:53.645Z,23.83
2022-08-24T06:04:53.793Z,23.86
2022-08-24T06:05:54.023Z,23.88
2022-08-24T06:06:54.151Z,23.91
2022-08-24T06:07:54.816Z,23.92
2022-08-24T06:08:54.546Z,23.92
2022-08-24T06:09:54.674Z,23.86
2022-08-24T06:10:54.948Z,23.87
2022-08-24T06:11:55.072Z,23.91
2022-08-24T06:12:55.226Z,23.92
2022-08-24T06:13:56.274Z,23.93
2022-08-24T06:14:55.589Z,23.96
2022-08-24T06:16:19.899Z,23.99
2022-08-24T06:16:56.993Z,24.02
2022-08-24T06:17:56.249Z,24.06
2022-08-24T06:18:56.291Z,24.10
2022-08-24T06:19:56.451Z,24.11
2022-08-24T06:20:57.237Z,24.16
2022-08-24T06:21:56.797Z,24.20
2022-08-24T06:22:56.967Z,24.24
2022-08-24T06:23:57.187Z,24.29
2022-08-24T06:24:58.964Z,24.36
2022-08-24T06:25:57.450Z,24.40
2022-08-24T06:26:57.665Z,24.48
2022-08-24T06:27:57.791Z,24.57
2022-08-24T06:28:57.930Z,24.66
2022-08-24T06:29:58.191Z,24.70
2022-08-24T06:30:58.368Z,24.73
2022-08-24T06:31:58.538Z,24.80
2022-08-24T06:32:58.728Z,24.88
2022-08-24T06:33:58.838Z,24.96
2022-08-24T06:34:59.028Z,24.96
2022-08-24T06:35:59.213Z,24.99
2022-08-24T06:36:59.347Z,24.99
2022-08-24T06:37:59.552Z,25.03
2022-08-24T06:38:59.805Z,25.04
2022-08-24T06:40:00.046Z,25.10
2022-08-24T06:41:00.061Z,25.17
2022-08-24T06:42:00.332Z,25.26
2022-08-24T06:43:00.440Z,25.36
2022-08-24T06:44:00.600Z,25.44
2022-08-24T06:45:00.822Z,25.53
2022-08-24T06:46:00.973Z,25.59
2022-08-24T06:47:01.172Z,25.63
2022-08-24T06:48:01.383Z,25.68
2022-08-24T06:49:01.488Z,25.70
2022-08-24T06:50:01.650Z,25.75
2022-08-24T06:51:01.867Z,25.78
2022-08-24T06:52:02.011Z,25.83
2022-08-24T06:53:02.198Z,25.81
2022-08-24T06:54:02.372Z,25.73
2022-08-24T06:55:02.569Z,25.66
2022-08-24T06:56:02.691Z,25.62
2022-08-24T06:57:02.849Z,25.60
2022-08-24T06:58:03.116Z,25.55
2022-08-24T06:59:03.220Z,25.48
2022-08-24T07:00:03.391Z,25.44
2022-08-24T07:01:03.589Z,25.40
2022-08-24T07:02:03.781Z,25.35
2022-08-24T07:03:04.090Z,25.31
2022-08-24T07:04:04.133Z,25.29
2022-08-24T07:05:04.246Z,25.29
2022-08-24T07:06:04.433Z,25.28
2022-08-24T07:07:04.645Z,25.29
2022-08-24T07:08:04.822Z,25.28
2022-08-24T07:09:04.963Z,25.26
2022-08-24T07:10:05.204Z,25.25
2022-08-24T07:11:05.377Z,25.22
2022-08-24T07:12:05.512Z,25.16
2022-08-24T07:13:05.886Z,25.06
2022-08-24T07:14:05.927Z,24.98
2022-08-24T07:15:16.194Z,24.91
2022-08-24T07:16:07.265Z,24.88
2022-08-24T07:17:06.462Z,24.85
2022-08-24T07:18:06.564Z,24.80
2022-08-24T07:19:06.716Z,24.77
2022-08-24T07:20:06.954Z,24.74
2022-08-24T07:21:07.099Z,24.74
2022-08-24T07:22:07.265Z,24.70
2022-08-24T07:23:07.502Z,24.69
2022-08-24T07:24:07.633Z,24.68
2022-08-24T07:25:07.765Z,24.65
2022-08-24T07:26:07.985Z,24.65
2022-08-24T07:27:08.198Z,24.68
2022-08-24T07:28:10.202Z,24.68
2022-08-24T07:29:20.666Z,24.66
2022-08-24T07:30:26.410Z,24.69
2022-08-24T07:31:09.871Z,24.69
2022-08-24T07:32:09.024Z,24.69
2022-08-24T07:33:09.247Z,24.73
2022-08-24T07:34:09.358Z,24.76
2022-08-24T07:35:09.537Z,24.74
2022-08-24T07:36:09.726Z,24.74
2022-08-24T07:37:09.919Z,24.74
2022-08-24T07:38:10.106Z,24.73
2022-08-24T07:39:10.320Z,24.73
2022-08-24T07:40:10.549Z,24.74
2022-08-24T07:41:36.496Z,24.77
2022-08-24T07:42:14.095Z,24.73
2022-08-24T07:43:11.008Z,24.69
2022-08-24T07:44:11.250Z,24.69
2022-08-24T07:45:11.355Z,24.69
2022-08-24T07:46:11.580Z,24.66
2022-08-24T07:47:36.631Z,24.70
2022-08-24T07:48:14.313Z,24.76
2022-08-24T07:49:29.365Z,24.80
2022-08-24T07:50:13.252Z,24.74
2022-08-24T07:51:12.399Z,24.70
2022-08-24T07:52:12.599Z,24.60
2022-08-24T07:53:16.293Z,24.60
2022-08-24T07:54:13.964Z,24.61
2022-08-24T07:55:13.146Z,24.69
2022-08-24T07:56:13.319Z,24.78
2022-08-24T07:57:13.509Z,24.88
2022-08-24T07:58:13.688Z,24.98
2022-08-24T07:59:13.829Z,25.07
2022-08-24T08:00:13.989Z,25.14
2022-08-24T08:01:14.271Z,25.22
2022-08-24T08:02:14.376Z,25.26
2022-08-24T08:03:14.556Z,25.36
2022-08-24T08:04:14.704Z,25.40
2022-08-24T08:05:14.843Z,25.36
2022-08-24T08:06:16.456Z,25.40
2022-08-24T08:07:15.188Z,25.44
2022-08-24T08:08:15.340Z,25.51
2022-08-24T08:09:15.500Z,25.59
2022-08-24T08:10:15.766Z,25.69
2022-08-24T08:11:15.871Z,25.78
2022-08-24T08:12:16.069Z,25.85
2022-08-24T08:13:16.210Z,25.95
2022-08-24T08:14:16.410Z,25.99
2022-08-24T08:15:16.583Z,26.06
2022-08-24T08:16:16.772Z,26.10
2022-08-24T08:17:16.941Z,26.21
2022-08-24T08:18:17.243Z,26.26
2022-08-24T08:19:17.292Z,26.31
2022-08-24T08:20:18.786Z,26.36
2022-08-24T08:21:17.662Z,26.45
2022-08-24T08:22:17.852Z,26.53
2022-08-24T08:23:18.029Z,26.59
2022-08-24T08:24:20.457Z,26.65
2022-08-24T08:25:18.352Z,26.71
2022-08-24T08:26:18.576Z,26.77
2022-08-24T08:27:18.717Z,26.83
2022-08-24T08:28:25.811Z,26.85
2022-08-24T08:29:20.104Z,26.90
2022-08-24T08:30:19.268Z,26.95
2022-08-24T08:31:19.455Z,26.97
2022-08-24T08:32:19.680Z,27.00
2022-08-24T08:33:19.828Z,27.07
2022-08-24T08:34:19.933Z,27.12
2022-08-24T08:35:20.109Z,27.05
2022-08-24T08:36:20.328Z,27.03
2022-08-24T08:37:20.447Z,27.11
2022-08-24T08:38:20.595Z,27.27
2022-08-24T08:39:20.879Z,27.52
2022-08-24T08:40:21.054Z,27.80
2022-08-24T08:41:25.916Z,28.00
2022-08-24T08:42:22.327Z,28.12
2022-08-24T08:43:21.474Z,28.26
2022-08-24T08:44:21.637Z,28.39
2022-08-24T08:45:21.814Z,28.48
2022-08-24T08:46:22.098Z,28.48
2022-08-24T08:47:22.185Z,28.48
2022-08-24T08:48:22.356Z,28.56
2022-08-24T08:49:22.601Z,28.57
2022-08-24T08:50:22.726Z,28.59
2022-08-24T08:51:22.896Z,28.62
2022-08-24T08:52:23.178Z,28.74
2022-08-24T08:53:23.256Z,28.78
2022-08-24T08:54:23.407Z,28.93
2022-08-24T08:55:23.596Z,29.10
2022-08-24T08:56:24.780Z,29.26
2022-08-24T08:57:24.053Z,29.49
2022-08-24T08:58:24.547Z,29.75
2022-08-24T08:59:24.278Z,30.06
2022-08-24T09:00:24.537Z,30.43
2022-08-24T09:01:24.649Z,30.77
2022-08-24T09:02:24.771Z,31.00
2022-08-24T09:03:24.939Z,31.31
2022-08-24T09:04:25.196Z,31.62
2022-08-24T09:05:25.259Z,31.81
2022-08-24T09:06:25.542Z,32.03
2022-08-24T09:07:25.651Z,32.29
2022-08-24T09:08:25.799Z,32.52
2022-08-24T09:09:26.055Z,32.74
2022-08-24T09:10:26.176Z,33.05
2022-08-24T09:11:26.319Z,33.30
2022-08-24T09:12:26.554Z,33.50
2022-08-24T09:13:26.671Z,33.71
2022-08-24T09:14:26.897Z,34.02
2022-08-24T09:15:27.038Z,34.62
2022-08-24T09:16:27.234Z,35.23
2022-08-24T09:17:27.461Z,35.78
2022-08-24T09:18:27.549Z,36.02
2022-08-24T09:19:31.708Z,35.97
2022-08-24T09:20:27.863Z,35.79
2022-08-24T09:21:28.055Z,35.61
2022-08-24T09:22:28.183Z,35.41
2022-08-24T09:23:28.364Z,35.10
2022-08-24T09:24:28.534Z,34.89
2022-08-24T09:25:28.724Z,34.55
2022-08-24T09:26:28.911Z,34.30
2022-08-24T09:27:29.074Z,33.95
2022-08-24T09:28:29.299Z,33.57
2022-08-24T09:29:29.426Z,33.19
2022-08-24T09:30:29.636Z,32.89
2022-08-24T09:31:29.903Z,32.70
2022-08-24T09:32:29.926Z,32.53
2022-08-24T09:33:30.115Z,32.38
2022-08-24T09:34:30.377Z,32.18
2022-08-24T09:35:30.466Z,31.84
2022-08-24T09:36:30.748Z,31.58
2022-08-24T09:37:30.807Z,31.51
2022-08-24T09:38:30.978Z,31.43
2022-08-24T09:39:31.166Z,31.34
2022-08-24T09:40:31.452Z,31.34
2022-08-24T09:41:31.646Z,31.36
2022-08-24T09:42:31.708Z,31.46
2022-08-24T09:43:31.888Z,31.51
2022-08-24T09:44:32.174Z,31.54
2022-08-24T09:45:32.264Z,31.59
2022-08-24T09:46:32.551Z,31.65
2022-08-24T09:47:32.598Z,31.77
2022-08-24T09:48:32.778Z,31.89
2022-08-24T09:49:33.060Z,31.89
2022-08-24T09:50:33.140Z,31.87
2022-08-24T09:51:33.340Z,31.77
2022-08-24T09:52:33.600Z,31.59
2022-08-24T09:53:33.703Z,31.44
2022-08-24T09:54:33.880Z,31.34
2022-08-24T09:55:34.180Z,31.29
2022-08-24T09:56:34.253Z,31.25
2022-08-24T09:57:59.510Z,31.20
2022-08-24T09:58:35.623Z,31.20
2022-08-24T09:59:34.801Z,31.07
2022-08-24T10:00:34.960Z,30.97
2022-08-24T10:01:35.195Z,30.80
2022-08-24T10:02:35.365Z,30.73
2022-08-24T10:03:38.529Z,30.69
2022-08-24T10:04:35.829Z,30.63
2022-08-24T10:05:36.898Z,30.61
2022-08-24T10:06:35.982Z,30.68
2022-08-24T10:07:36.182Z,30.72
2022-08-24T10:08:36.392Z,30.77
2022-08-24T10:09:36.494Z,30.83
2022-08-24T10:10:36.686Z,30.81
2022-08-24T10:11:36.943Z,30.94
2022-08-24T10:12:37.034Z,31.12
2022-08-24T10:13:37.294Z,31.22
2022-08-24T10:14:37.392Z,31.21
2022-08-24T10:15:37.604Z,31.39
2022-08-24T10:16:37.902Z,31.43
2022-08-24T10:17:37.935Z,31.43
2022-08-24T10:18:38.114Z,31.51
2022-08-24T10:19:38.379Z,31.55
2022-08-24T10:20:38.498Z,31.61
2022-08-24T10:21:38.639Z,31.69
2022-08-24T10:22:38.904Z,31.65
2022-08-24T10:23:39.023Z,31.66
2022-08-24T10:24:39.156Z,31.71
2022-08-24T10:25:39.427Z,31.78
2022-08-24T10:26:39.545Z,31.92
2022-08-24T10:27:39.702Z,32.01
2022-08-24T10:28:39.884Z,32.12
2022-08-24T10:29:40.107Z,32.22
2022-08-24T10:30:40.266Z,32.23
2022-08-24T10:31:40.420Z,32.29
2022-08-24T10:32:40.581Z,32.30
2022-08-24T10:33:40.726Z,32.22
2022-08-24T10:34:40.944Z,32.07
2022-08-24T10:35:41.098Z,31.99
2022-08-24T10:36:41.258Z,31.96
2022-08-24T10:37:42.285Z,31.87
2022-08-24T10:38:41.596Z,31.87
2022-08-24T10:39:41.800Z,31.90
2022-08-24T10:40:42.087Z,31.94
2022-08-24T10:41:42.152Z,31.97
2022-08-24T10:42:42.289Z,32.04
2022-08-24T10:43:42.555Z,32.11
2022-08-24T10:44:42.680Z,32.15
2022-08-24T10:45:42.845Z,32.21
2022-08-24T10:46:44.069Z,32.14
2022-08-24T10:47:43.182Z,31.97
2022-08-24T10:48:43.351Z,31.65
2022-08-24T10:49:43.657Z,31.49
2022-08-24T10:50:43.718Z,31.34
2022-08-24T10:51:43.892Z,31.28
2022-08-24T10:52:44.106Z,31.25
2022-08-24T10:53:44.323Z,31.20
2022-08-24T10:54:44.423Z,31.18
2022-08-24T10:55:44.622Z,31.17
2022-08-24T10:56:44.836Z,31.18
2022-08-24T10:57:44.969Z,31.15
2022-08-24T10:58:45.147Z,31.09
2022-08-24T10:59:45.338Z,31.00
2022-08-24T11:00:45.535Z,30.94
2022-08-24T11:01:45.782Z,30.88
2022-08-24T11:02:45.876Z,30.85
2022-08-24T11:03:46.000Z,30.92
2022-08-24T11:04:46.284Z,30.97
2022-08-24T11:05:46.371Z,30.99
2022-08-24T11:06:46.514Z,30.99
2022-08-24T11:07:46.753Z,31.03
2022-08-24T11:08:46.896Z,31.06
2022-08-24T11:09:47.091Z,31.05
2022-08-24T11:10:47.283Z,31.05
2022-08-24T11:11:47.487Z,31.07
2022-08-24T11:12:47.615Z,31.14
2022-08-24T11:13:47.786Z,31.22
2022-08-24T11:14:48.054Z,31.07
2022-08-24T11:15:48.153Z,30.77
2022-08-24T11:16:48.349Z,30.63
2022-08-24T11:17:48.580Z,30.51
2022-08-24T11:18:48.715Z,30.40
2022-08-24T11:19:48.879Z,30.30
2022-08-24T11:20:49.146Z,30.23
2022-08-24T11:21:49.206Z,30.10
2022-08-24T11:22:49.666Z,29.94
2022-08-24T11:23:49.648Z,29.84
2022-08-24T11:24:49.785Z,29.84
2022-08-24T11:25:49.980Z,29.79
2022-08-24T11:26:53.587Z,29.75
2022-08-24T11:27:50.287Z,29.66
2022-08-24T11:28:50.439Z,29.71
2022-08-24T11:29:50.662Z,29.73
2022-08-24T11:30:50.840Z,29.79
2022-08-24T11:31:51.027Z,29.84
2022-08-24T11:32:51.131Z,29.86
2022-08-24T11:33:52.316Z,29.81
2022-08-24T11:34:51.484Z,29.75
2022-08-24T11:35:51.641Z,29.71
2022-08-24T11:36:51.779Z,29.71
2022-08-24T11:37:52.030Z,29.68
2022-08-24T11:38:52.113Z,29.66
2022-08-24T11:39:52.346Z,29.60
2022-08-24T11:40:52.532Z,29.61
2022-08-24T11:41:52.653Z,29.65
2022-08-24T11:42:52.813Z,29.75
2022-08-24T11:43:53.031Z,29.78
2022-08-24T11:44:53.180Z,29.73
2022-08-24T11:45:53.323Z,29.71
2022-08-24T11:46:53.641Z,29.72
2022-08-24T11:47:53.677Z,29.75
2022-08-24T11:48:53.860Z,29.76
2022-08-24T11:49:54.153Z,29.69
2022-08-24T11:50:54.213Z,29.68
2022-08-24T11:51:54.481Z,29.65
2022-08-24T11:52:54.558Z,29.66
2022-08-24T11:53:54.744Z,29.68
2022-08-24T11:54:54.946Z,29.68
2022-08-24T11:55:57.480Z,29.76
2022-08-24T11:56:56.234Z,29.78
2022-08-24T11:57:55.425Z,29.86
2022-08-24T11:58:55.657Z,29.94
2022-08-24T11:59:55.785Z,30.05
2022-08-24T12:00:55.967Z,30.09
2022-08-24T12:01:56.375Z,30.09
2022-08-24T12:02:56.400Z,30.08
2022-08-24T12:03:56.528Z,30.05
2022-08-24T12:04:56.666Z,30.02
2022-08-24T12:05:56.856Z,29.98
2022-08-24T12:06:57.097Z,29.88
2022-08-24T12:07:57.207Z,29.88
2022-08-24T12:08:57.395Z,29.90
2022-08-24T12:09:57.649Z,29.90
2022-08-24T12:10:57.728Z,29.88
2022-08-24T12:11:57.910Z,29.87
2022-08-24T12:12:58.170Z,29.91
2022-08-24T12:13:58.278Z,29.94
2022-08-24T12:14:58.438Z,30.02
2022-08-24T12:15:58.694Z,30.09
2022-08-24T12:16:58.810Z,30.12
2022-08-24T12:17:59.058Z,30.09
2022-08-24T12:18:59.287Z,30.12
2022-08-24T12:19:59.356Z,30.08
2022-08-24T12:20:59.549Z,30.08
2022-08-24T12:21:59.779Z,30.12
2022-08-24T12:22:59.870Z,30.15
2022-08-24T12:24:00.142Z,30.13
2022-08-24T12:25:00.228Z,30.09
2022-08-24T12:26:00.409Z,30.13
2022-08-24T12:27:00.670Z,30.16
2022-08-24T12:28:00.872Z,30.08
2022-08-24T12:29:00.950Z,30.05
2022-08-24T12:30:01.158Z,30.08
2022-08-24T12:31:01.391Z,30.10
2022-08-24T12:32:01.484Z,30.10
2022-08-24T12:33:01.649Z,30.02
2022-08-24T12:34:01.864Z,30.03
2022-08-24T12:35:01.973Z,30.05
2022-08-24T12:36:02.139Z,30.06
2022-08-24T12:37:02.539Z,30.09
2022-08-24T12:38:02.734Z,30.15
2022-08-24T12:39:03.181Z,30.13
2022-08-24T12:40:02.892Z,30.12
2022-08-24T12:41:08.838Z,30.09
2022-08-24T12:42:04.153Z,30.06
2022-08-24T12:43:03.343Z,30.09
2022-08-24T12:44:03.553Z,30.18
2022-08-24T12:45:03.704Z,30.23
2022-08-24T12:46:03.963Z,30.23
2022-08-24T12:47:04.088Z,30.24
2022-08-24T12:48:04.358Z,30.24
2022-08-24T12:49:04.538Z,30.28
2022-08-24T12:50:04.601Z,30.30
2022-08-24T12:51:04.745Z,30.27
2022-08-24T12:52:04.935Z,30.24
2022-08-24T12:53:05.149Z,30.25
2022-08-24T12:54:06.305Z,30.28
2022-08-24T12:55:05.485Z,30.27